Time;durP1;ratioP1;P1;durP2;ratioP2;P2;SDS_P1;SDS_P2;PMS_P1;PMS_P2;Temp;Humidity;BMP_temperature;BMP_pressure;BME280_temperature;BME280_humidity;BME280_pressure;Samples;Min_cycle;Max_cycle;Signal;HPM_P1;HPM_P2
2021/12/24 00:00:32;;;;;;;7.50;4.72;;;8.60;84.40;;;;;;5075029;28;20028;-78
2021/12/24 00:02:58;;;;;;;10.68;5.20;;;8.60;84.40;;;;;;5075015;28;20035;-79
2021/12/24 00:05:24;;;;;;;13.93;5.05;;;8.60;84.50;;;;;;5074932;28;20027;-78
2021/12/24 00:07:50;;;;;;;17.52;5.40;;;8.70;84.60;;;;;;5074830;28;20081;-78
2021/12/24 00:10:16;;;;;;;19.63;4.90;;;8.70;84.70;;;;;;5093314;28;20028;-78
2021/12/24 00:12:47;;;;;;;11.93;4.60;;;8.60;84.60;;;;;;5075075;28;20016;-78
2021/12/24 00:15:34;;;;;;;13.38;4.75;;;8.70;84.60;;;;;;5092789;28;20016;-78
2021/12/24 00:18:23;;;;;;;13.63;4.70;;;8.70;84.60;;;;;;5092708;28;20386;-79
2021/12/24 00:36:50;;;;;;;6.85;3.85;;;8.70;85.00;;;;;;5093028;28;20027;-77
2021/12/24 00:39:16;;;;;;;6.65;3.90;;;8.70;85.10;;;;;;5074502;28;20469;-78
2021/12/24 00:41:42;;;;;;;6.45;4.03;;;8.70;85.20;;;;;;5074448;28;20092;-78
2021/12/24 00:44:07;;;;;;;6.55;3.95;;;8.60;85.30;;;;;;5074270;28;20446;-78
2021/12/24 00:46:34;;;;;;;6.25;3.72;;;8.70;85.40;;;;;;5074849;28;20509;-78
2021/12/24 00:49:01;;;;;;;6.68;4.03;;;8.60;85.50;;;;;;5074762;28;20032;-78
2021/12/24 00:56:56;;;;;;;7.10;3.63;;;8.60;85.50;;;;;;5057164;28;20051;-79
2021/12/24 00:59:21;;;;;;;6.28;3.90;;;8.60;85.50;;;;;;5055432;28;20025;-79
2021/12/24 01:01:47;;;;;;;6.68;3.47;;;8.70;85.70;;;;;;5055530;28;20020;-80
2021/12/24 01:04:12;;;;;;;5.95;3.42;;;8.60;85.70;;;;;;5056450;28;20167;-80
2021/12/24 01:06:38;;;;;;;6.22;3.67;;;8.70;85.70;;;;;;5055172;28;20091;-80
2021/12/24 01:09:04;;;;;;;5.60;3.53;;;8.70;85.80;;;;;;5055276;28;20029;-79
2021/12/24 01:11:30;;;;;;;6.10;3.80;;;8.60;85.70;;;;;;5055254;28;20047;-80
2021/12/24 01:13:58;;;;;;;6.50;3.90;;;8.70;85.80;;;;;;5054928;28;20021;-79
2021/12/24 01:16:46;;;;;;;6.35;3.67;;;8.60;85.80;;;;;;5055163;28;20032;-79
2021/12/24 01:19:18;;;;;;;6.43;3.83;;;8.60;85.80;;;;;;5054833;28;20111;-80
2021/12/24 01:22:27;;;;;;;6.57;4.00;;;8.70;86.00;;;;;;5054565;28;20029;-79
2021/12/24 01:24:52;;;;;;;6.38;3.88;;;8.70;86.20;;;;;;5055385;28;20031;-78
2021/12/24 01:27:52;;;;;;;6.35;3.55;;;8.70;86.30;;;;;;5054603;28;20029;-79
2021/12/24 01:37:51;;;;;;;6.88;3.85;;;8.60;86.30;;;;;;5055026;28;20033;-79
2021/12/24 01:38:26;;;;;;;6.80;4.00;;;8.70;86.60;;;;;;5055815;28;20078;-78
2021/12/24 01:41:05;;;;;;;6.45;4.00;;;8.70;86.70;;;;;;5054328;28;20074;-79
2021/12/24 01:43:31;;;;;;;7.15;4.30;;;8.60;86.60;;;;;;5055063;28;20025;-79
2021/12/24 01:45:59;;;;;;;8.27;4.30;;;8.70;86.80;;;;;;5053920;28;20409;-79
2021/12/24 01:48:25;;;;;;;6.40;3.83;;;8.70;86.70;;;;;;5056415;28;20258;-80
2021/12/24 01:50:52;;;;;;;7.78;4.60;;;8.60;86.70;;;;;;5057530;28;20029;-80
2021/12/24 01:53:20;;;;;;;7.13;4.35;;;8.70;87.00;;;;;;5056349;28;20036;-79
2021/12/24 01:55:48;;;;;;;8.88;4.82;;;8.70;87.00;;;;;;5056454;28;20024;-80
2021/12/24 01:58:19;;;;;;;8.43;4.32;;;8.70;87.10;;;;;;5056111;28;20033;-80
2021/12/24 02:00:46;;;;;;;7.95;4.72;;;8.70;87.10;;;;;;5055578;28;20021;-79
2021/12/24 02:03:12;;;;;;;9.15;4.72;;;8.70;87.10;;;;;;5056000;28;20082;-79
2021/12/24 02:05:40;;;;;;;7.55;4.65;;;8.70;87.10;;;;;;5055452;28;20115;-80
2021/12/24 02:08:08;;;;;;;8.57;4.70;;;8.70;87.20;;;;;;5055359;28;20119;-79
2021/12/24 02:10:34;;;;;;;7.60;5.05;;;8.70;87.30;;;;;;5056624;28;20028;-79
2021/12/24 02:13:00;;;;;;;7.75;4.97;;;8.70;87.20;;;;;;5056434;28;20462;-79
2021/12/24 02:18:16;;;;;;;8.20;5.38;;;8.70;87.30;;;;;;5056748;28;20029;-80
2021/12/24 02:28:53;;;;;;;8.25;5.30;;;8.70;87.50;;;;;;5056143;28;20035;-79
2021/12/24 02:31:25;;;;;;;8.13;5.13;;;8.70;87.60;;;;;;5055604;28;20017;-79
2021/12/24 02:33:51;;;;;;;;;;;8.70;87.60;;;;;;5055971;28;20057;-79
2021/12/24 02:36:20;;;;;;;8.50;5.53;;;8.70;87.00;;;;;;5055692;28;19912;-79
2021/12/24 02:38:46;;;;;;;7.55;5.20;;;8.70;87.10;;;;;;5054137;28;20056;-79
2021/12/24 02:41:13;;;;;;;6.82;4.45;;;8.80;87.20;;;;;;5055626;28;20086;-79
2021/12/24 02:43:39;;;;;;;8.85;5.63;;;8.70;86.80;;;;;;5053738;28;20482;-79
2021/12/24 02:46:12;;;;;;;9.02;5.70;;;8.80;86.50;;;;;;5055254;28;20111;-79
2021/12/24 02:54:03;;;;;;;8.05;5.60;;;8.90;86.30;;;;;;5054775;28;20078;-79
2021/12/24 02:56:32;;;;;;;7.72;5.43;;;8.80;86.40;;;;;;5054925;28;20060;-79
2021/12/24 02:59:00;;;;;;;7.63;5.28;;;8.90;86.10;;;;;;5053339;28;20033;-79
2021/12/24 03:01:32;;;;;;;8.98;5.60;;;8.90;86.00;;;;;;5055426;28;20166;-80
2021/12/24 03:03:58;;;;;;;7.82;5.18;;;8.90;86.20;;;;;;5056124;28;20103;-79
2021/12/24 03:06:31;;;;;;;8.25;5.60;;;8.90;86.20;;;;;;5056400;28;20025;-80
2021/12/24 03:08:57;;;;;;;7.95;5.57;;;8.90;86.40;;;;;;5054733;28;20032;-80
2021/12/24 03:11:24;;;;;;;8.60;5.97;;;8.90;86.40;;;;;;5056015;28;20017;-80
2021/12/24 03:13:50;;;;;;;8.05;5.50;;;8.90;86.30;;;;;;5053478;28;20021;-80
2021/12/24 03:16:16;;;;;;;7.68;5.43;;;8.90;86.20;;;;;;5054779;28;20021;-80
2021/12/24 03:18:44;;;;;;;9.75;6.40;;;8.90;86.20;;;;;;5055794;28;20044;-80
2021/12/24 03:21:15;;;;;;;9.13;6.32;;;8.90;86.50;;;;;;5055849;28;20437;-80
2021/12/24 03:23:45;;;;;;;8.95;6.03;;;8.90;86.40;;;;;;5053763;28;20386;-80
2021/12/24 03:26:14;;;;;;;8.20;5.80;;;8.90;86.80;;;;;;5054082;28;20383;-79
2021/12/24 03:28:41;;;;;;;8.82;5.95;;;8.90;86.40;;;;;;5053183;28;20032;-80
2021/12/24 03:31:07;;;;;;;8.85;5.97;;;8.90;86.60;;;;;;5053441;28;20043;-79
2021/12/24 03:33:34;;;;;;;8.27;5.68;;;8.90;86.50;;;;;;5053461;28;20118;-80
2021/12/24 03:36:05;;;;;;;7.90;5.70;;;8.90;86.60;;;;;;5054931;28;20579;-80
2021/12/24 03:38:31;;;;;;;7.85;4.97;;;8.80;86.70;;;;;;5054959;28;20036;-80
2021/12/24 03:40:56;;;;;;;7.90;5.45;;;8.90;86.80;;;;;;5054692;28;20398;-79
2021/12/24 03:43:22;;;;;;;8.55;5.40;;;8.80;86.60;;;;;;5052863;28;20024;-78
2021/12/24 03:46:01;;;;;;;7.40;5.13;;;8.90;87.00;;;;;;5052665;28;20035;-79
2021/12/24 03:48:54;;;;;;;8.20;5.78;;;8.90;86.80;;;;;;5052934;28;20032;-80
2021/12/24 03:56:24;;;;;;;8.15;5.60;;;8.90;86.90;;;;;;5054101;28;20100;-79
2021/12/24 03:58:49;;;;;;;8.52;5.53;;;8.90;86.90;;;;;;5053670;28;20478;-79
2021/12/24 04:01:15;;;;;;;8.65;5.90;;;8.90;87.30;;;;;;5052590;28;20025;-79
2021/12/24 04:03:40;;;;;;;8.40;5.82;;;8.90;87.10;;;;;;5052253;28;20082;-79
2021/12/24 04:06:06;;;;;;;8.45;5.82;;;8.90;87.40;;;;;;5052342;28;20083;-79
2021/12/24 04:08:32;;;;;;;8.52;5.97;;;8.80;87.30;;;;;;5053765;28;20040;-79
2021/12/24 04:10:58;;;;;;;9.02;6.60;;;8.90;87.20;;;;;;5053346;28;20021;-79
2021/12/24 04:13:24;;;;;;;8.77;6.22;;;8.90;87.40;;;;;;5051743;28;20029;-78
2021/12/24 04:15:49;;;;;;;9.50;6.90;;;8.90;87.60;;;;;;5052699;28;20017;-79
2021/12/24 04:18:40;;;;;;;10.45;7.15;;;8.90;87.60;;;;;;5051996;28;20074;-79
2021/12/24 04:26:32;;;;;;;9.73;6.90;;;8.80;89.00;;;;;;5057510;28;20044;-79
2021/12/24 04:28:58;;;;;;;10.82;7.13;;;8.70;89.00;;;;;;5056769;28;20021;-79
2021/12/24 04:31:30;;;;;;;9.57;6.60;;;8.70;89.40;;;;;;5055688;28;20402;-79
2021/12/24 04:34:00;;;;;;;10.23;7.28;;;8.70;89.30;;;;;;5056625;28;20018;-80
2021/12/24 05:03:09;;;;;;;10.88;6.47;;;8.70;90.00;;;;;;5056897;28;20056;-80
2021/12/24 05:05:44;;;;;;;12.70;6.57;;;8.70;89.80;;;;;;5058577;28;20021;-80
2021/12/24 05:10:39;;;;;;;10.38;6.18;;;8.70;90.10;;;;;;5058175;28;20104;-79
2021/12/24 05:13:07;;;;;;;10.95;6.40;;;8.70;90.10;;;;;;5057184;28;20075;-79
2021/12/24 05:15:36;;;;;;;8.85;6.30;;;8.70;90.20;;;;;;5056883;28;20051;-80
2021/12/24 05:18:17;;;;;;;9.63;6.30;;;8.70;90.10;;;;;;5056530;28;20426;-80
2021/12/24 05:23:27;;;;;;;9.82;5.70;;;8.70;90.00;;;;;;5057742;28;20039;-80
2021/12/24 05:25:54;;;;;;;8.50;5.68;;;8.70;90.20;;;;;;5057495;28;20081;-80
2021/12/24 05:28:21;;;;;;;8.80;5.78;;;8.70;90.30;;;;;;5055568;28;20021;-80
2021/12/24 05:30:47;;;;;;;10.80;6.03;;;8.70;90.30;;;;;;5055866;28;20116;-80
2021/12/24 05:33:15;;;;;;;9.65;5.43;;;8.70;90.40;;;;;;5055953;28;20025;-80
2021/12/24 05:35:41;;;;;;;9.80;5.35;;;8.70;90.30;;;;;;5055091;28;20028;-79
2021/12/24 05:38:07;;;;;;;7.95;5.65;;;8.70;90.30;;;;;;5056826;28;20086;-79
2021/12/24 05:40:33;;;;;;;8.13;5.13;;;8.70;90.30;;;;;;5056993;28;20433;-80
2021/12/24 05:42:58;;;;;;;7.75;5.05;;;8.70;90.30;;;;;;5055884;28;20029;-79
2021/12/24 05:45:24;;;;;;;8.68;5.60;;;8.70;90.30;;;;;;5054296;28;20029;-80
2021/12/24 05:47:51;;;;;;;8.57;5.40;;;8.70;90.40;;;;;;5056498;28;20031;-80
2021/12/24 05:50:17;;;;;;;8.13;4.90;;;8.70;90.40;;;;;;5055170;28;20501;-79
2021/12/24 05:52:43;;;;;;;8.43;5.22;;;8.70;90.30;;;;;;5054886;28;20029;-79
2021/12/24 05:55:09;;;;;;;8.02;5.03;;;8.70;90.40;;;;;;5056200;28;20021;-79
2021/12/24 05:57:35;;;;;;;7.97;5.00;;;8.70;90.60;;;;;;5060770;28;20021;-80
2021/12/24 06:00:05;;;;;;;7.28;4.72;;;8.70;90.50;;;;;;5067048;28;20025;-79
2021/12/24 06:02:34;;;;;;;7.72;5.15;;;8.70;90.50;;;;;;5074781;28;20549;-79
2021/12/24 06:04:59;;;;;;;8.55;5.38;;;8.70;90.50;;;;;;5075557;28;20029;-80
2021/12/24 06:07:25;;;;;;;8.80;5.13;;;8.70;90.40;;;;;;5074546;28;20039;-80
2021/12/24 06:09:50;;;;;;;7.63;4.75;;;8.70;90.50;;;;;;5075743;28;20391;-80
2021/12/24 06:12:16;;;;;;;7.88;4.90;;;8.70;90.30;;;;;;5075574;28;20398;-79
2021/12/24 06:14:44;;;;;;;8.23;4.95;;;8.70;90.40;;;;;;5074160;28;20027;-80
2021/12/24 06:17:15;;;;;;;7.85;5.28;;;8.70;90.40;;;;;;5074131;28;20031;-80
2021/12/24 06:19:41;;;;;;;8.02;5.15;;;8.70;90.50;;;;;;5077600;28;20401;-80
2021/12/24 06:22:07;;;;;;;8.15;5.50;;;8.70;90.40;;;;;;5076040;28;20060;-80
2021/12/24 06:24:32;;;;;;;8.38;5.45;;;8.70;90.40;;;;;;5076095;28;20111;-80
2021/12/24 06:26:58;;;;;;;8.63;5.63;;;8.70;90.30;;;;;;5076184;28;20394;-79
2021/12/24 06:29:24;;;;;;;8.35;5.65;;;8.70;90.40;;;;;;5075081;28;20033;-79
2021/12/24 06:31:50;;;;;;;8.63;5.47;;;8.70;90.40;;;;;;5076677;28;20074;-79
2021/12/24 06:34:17;;;;;;;8.90;6.00;;;8.70;90.40;;;;;;5074526;28;20560;-80
2021/12/24 06:36:46;;;;;;;8.10;5.45;;;8.80;90.40;;;;;;5062607;28;20108;-80
2021/12/24 06:39:12;;;;;;;9.50;6.38;;;8.70;90.60;;;;;;5054062;28;20033;-79
2021/12/24 06:41:37;;;;;;;7.70;5.25;;;8.70;90.60;;;;;;5053245;28;20914;-81
2021/12/24 06:44:05;;;;;;;10.05;5.80;;;8.80;90.60;;;;;;5053798;28;20226;-79
2021/12/24 06:46:30;;;;;;;8.70;5.53;;;8.70;90.50;;;;;;5052791;28;20032;-81
2021/12/24 06:48:56;;;;;;;8.32;5.68;;;8.70;90.60;;;;;;5052360;28;20039;-80
2021/12/24 06:51:25;;;;;;;8.57;6.05;;;8.70;90.40;;;;;;5054064;28;20075;-80
2021/12/24 06:53:52;;;;;;;9.55;6.88;;;8.70;90.50;;;;;;5053297;28;20025;-79
2021/12/24 06:56:17;;;;;;;9.68;6.38;;;8.70;90.60;;;;;;5052772;28;20025;-80
2021/12/24 06:58:43;;;;;;;9.85;6.65;;;8.70;90.60;;;;;;5053669;28;20033;-79
2021/12/24 07:01:09;;;;;;;10.68;6.78;;;8.70;90.70;;;;;;5052586;28;20029;-79
2021/12/24 07:03:37;;;;;;;10.32;7.13;;;8.70;90.40;;;;;;5053531;28;20125;-81
2021/12/24 07:06:03;;;;;;;10.18;7.13;;;8.70;90.50;;;;;;5052187;28;20102;-79
2021/12/24 07:08:28;;;;;;;11.07;7.30;;;8.80;90.70;;;;;;5050876;28;20474;-79
2021/12/24 07:10:54;;;;;;;10.80;7.47;;;8.70;90.70;;;;;;5052047;28;20037;-78
2021/12/24 07:13:19;;;;;;;10.98;7.38;;;8.70;90.60;;;;;;5051351;28;20066;-77
2021/12/24 07:15:45;;;;;;;9.70;7.05;;;8.70;90.60;;;;;;5051304;28;20068;-77
2021/12/24 07:18:10;;;;;;;11.25;7.53;;;8.70;90.60;;;;;;5050616;28;20033;-77
2021/12/24 07:20:36;;;;;;;12.05;8.13;;;8.80;90.60;;;;;;5050337;28;20029;-77
2021/12/24 07:23:02;;;;;;;11.85;8.20;;;8.70;90.50;;;;;;5048808;28;20032;-77
2021/12/24 07:25:27;;;;;;;12.27;8.15;;;8.70;90.70;;;;;;5048697;28;20021;-78
2021/12/24 07:27:53;;;;;;;13.07;8.75;;;8.80;90.60;;;;;;5049937;28;20116;-77
2021/12/24 07:30:20;;;;;;;12.27;8.18;;;8.70;90.70;;;;;;5049040;28;20055;-77
2021/12/24 07:32:46;;;;;;;11.52;8.27;;;8.80;90.70;;;;;;5049147;28;20044;-78
2021/12/24 07:35:12;;;;;;;12.35;8.57;;;8.80;90.70;;;;;;5048620;28;20678;-79
2021/12/24 07:37:38;;;;;;;14.43;9.77;;;8.80;90.70;;;;;;5049200;28;20112;-77
2021/12/24 07:40:05;;;;;;;13.65;9.75;;;8.70;90.80;;;;;;5050926;28;20095;-83
2021/12/24 07:42:31;;;;;;;12.48;9.13;;;8.70;90.80;;;;;;5049634;28;20056;-78
2021/12/24 07:44:57;;;;;;;13.00;9.20;;;8.80;90.80;;;;;;5048942;28;20056;-76
2021/12/24 07:47:33;;;;;;;12.65;8.32;;;8.70;90.60;;;;;;5047972;28;20151;-76
2021/12/24 07:50:17;;;;;;;13.82;9.13;;;8.80;90.50;;;;;;5048488;28;20145;-76
2021/12/24 07:52:43;;;;;;;13.48;9.40;;;8.80;90.50;;;;;;5048748;28;20029;-76
2021/12/24 07:55:10;;;;;;;14.02;9.98;;;8.80;90.70;;;;;;5048198;28;20021;-76
2021/12/24 07:57:36;;;;;;;13.10;9.35;;;8.80;90.70;;;;;;5049254;28;20383;-76
2021/12/24 08:00:05;;;;;;;15.05;10.43;;;8.80;90.90;;;;;;5047506;28;20060;-77
2021/12/24 08:02:31;;;;;;;15.50;10.23;;;8.80;90.90;;;;;;5047763;28;20767;-81
2021/12/24 08:04:57;;;;;;;14.27;10.02;;;8.80;90.90;;;;;;5048322;28;20036;-77
2021/12/24 08:07:22;;;;;;;13.27;9.90;;;8.80;90.80;;;;;;5048638;28;20056;-78
2021/12/24 08:09:51;;;;;;;15.15;10.52;;;8.80;90.70;;;;;;5048913;28;20513;-77
2021/12/24 08:12:18;;;;;;;14.88;10.60;;;8.80;90.90;;;;;;5047399;28;20071;-78
2021/12/24 08:14:45;;;;;;;14.57;10.02;;;8.80;90.80;;;;;;5046837;28;20025;-77
2021/12/24 08:17:11;;;;;;;17.10;11.10;;;8.80;90.90;;;;;;5047088;28;20048;-77
2021/12/24 08:19:37;;;;;;;16.52;11.02;;;8.80;90.90;;;;;;5046533;28;20021;-81
2021/12/24 08:22:04;;;;;;;15.68;10.88;;;8.80;90.80;;;;;;5046913;28;20044;-78
2021/12/24 08:24:30;;;;;;;16.13;10.80;;;8.80;90.90;;;;;;5048607;28;20029;-82
2021/12/24 08:26:56;;;;;;;16.85;11.10;;;8.80;91.00;;;;;;5048355;28;20025;-78
2021/12/24 08:29:22;;;;;;;15.30;10.35;;;8.80;91.00;;;;;;5048408;28;20048;-79
2021/12/24 08:31:49;;;;;;;15.80;10.55;;;8.80;91.00;;;;;;5049287;28;20414;-77
2021/12/24 08:34:17;;;;;;;16.27;11.07;;;8.70;91.00;;;;;;5046983;28;20029;-77
2021/12/24 08:36:43;;;;;;;16.90;11.15;;;8.80;91.00;;;;;;5047618;28;20061;-76
2021/12/24 08:39:09;;;;;;;16.70;11.10;;;8.80;91.20;;;;;;5046732;28;20091;-79
2021/12/24 08:41:34;;;;;;;16.63;10.75;;;8.80;91.10;;;;;;5047792;28;20767;-77
2021/12/24 08:44:01;;;;;;;16.45;11.35;;;8.80;91.30;;;;;;5047832;28;20044;-77
2021/12/24 08:46:26;;;;;;;16.17;11.25;;;8.80;91.20;;;;;;5047860;28;20053;-79
2021/12/24 08:48:52;;;;;;;17.95;11.70;;;8.80;91.30;;;;;;5048318;28;20053;-77
2021/12/24 08:51:17;;;;;;;15.32;10.82;;;8.80;91.20;;;;;;5049043;28;20028;-79
2021/12/24 08:53:43;;;;;;;15.90;10.70;;;8.80;91.20;;;;;;5048054;28;20680;-77
2021/12/24 08:56:09;;;;;;;16.00;10.90;;;8.80;91.40;;;;;;5049678;28;20021;-77
2021/12/24 08:58:36;;;;;;;17.05;11.80;;;8.80;91.40;;;;;;5049284;28;20429;-77
2021/12/24 09:01:01;;;;;;;16.13;11.52;;;8.70;91.40;;;;;;5048272;28;20094;-77
2021/12/24 09:03:27;;;;;;;17.17;11.45;;;8.70;91.50;;;;;;5048670;28;20568;-78
2021/12/24 09:05:53;;;;;;;22.42;11.90;;;8.80;91.50;;;;;;5049133;28;20029;-77
2021/12/24 09:08:18;;;;;;;42.05;11.55;;;8.80;91.50;;;;;;5046964;28;20028;-77
2021/12/24 09:10:44;;;;;;;82.65;14.52;;;8.70;91.40;;;;;;5030936;28;20065;-77
2021/12/24 09:13:09;;;;;;;60.08;13.57;;;8.80;91.30;;;;;;5049148;28;20029;-82
2021/12/24 09:15:35;;;;;;;97.20;15.48;;;8.80;91.40;;;;;;5032948;28;20025;-76
2021/12/24 09:18:02;;;;;;;88.78;16.58;;;8.80;91.40;;;;;;5049459;28;20507;-79
2021/12/24 09:20:35;;;;;;;97.85;17.38;;;8.80;91.50;;;;;;5033836;28;20463;-77
2021/12/24 09:23:02;;;;;;;73.80;14.60;;;8.80;91.60;;;;;;5048866;28;20029;-78
2021/12/24 09:25:29;;;;;;;60.00;13.25;;;8.80;91.40;;;;;;5048460;28;20029;-84
2021/12/24 09:27:56;;;;;;;61.17;15.10;;;8.80;91.30;;;;;;5048511;28;20552;-77
2021/12/24 09:30:22;;;;;;;46.15;11.27;;;8.80;91.40;;;;;;5032933;28;20025;-78
2021/12/24 09:32:47;;;;;;;39.75;11.57;;;8.80;91.40;;;;;;5049482;28;20049;-79
2021/12/24 09:35:13;;;;;;;51.20;11.20;;;8.80;91.40;;;;;;5049229;28;20049;-79
2021/12/24 09:37:40;;;;;;;35.08;10.98;;;8.70;91.30;;;;;;5032959;28;20067;-78
2021/12/24 09:40:07;;;;;;;36.35;11.75;;;8.80;91.30;;;;;;5033275;28;20451;-78
2021/12/24 09:42:34;;;;;;;34.45;10.68;;;8.80;91.60;;;;;;5033695;28;20080;-77
2021/12/24 09:45:00;;;;;;;30.50;11.00;;;8.80;91.40;;;;;;5049172;28;20079;-78
2021/12/24 09:47:25;;;;;;;21.00;9.70;;;8.80;91.40;;;;;;5048905;28;20036;-78
2021/12/24 09:49:52;;;;;;;28.85;10.05;;;8.80;91.40;;;;;;5033290;28;20021;-81
2021/12/24 09:52:19;;;;;;;25.35;10.23;;;8.70;91.40;;;;;;5033205;28;20034;-77
2021/12/24 09:54:47;;;;;;;22.80;10.20;;;8.80;91.50;;;;;;5049168;28;20026;-78
2021/12/24 09:57:13;;;;;;;21.20;9.60;;;8.70;91.60;;;;;;5048505;28;20071;-78
2021/12/24 09:59:40;;;;;;;24.52;9.77;;;8.80;91.70;;;;;;5033130;28;20021;-77
2021/12/24 10:02:15;;;;;;;17.25;8.57;;;8.70;91.60;;;;;;5033018;28;20017;-77
2021/12/24 10:04:41;;;;;;;20.77;8.88;;;8.80;91.70;;;;;;5032716;28;20056;-78
2021/12/24 10:07:10;;;;;;;18.33;8.35;;;8.80;91.70;;;;;;5050808;28;20089;-79
2021/12/24 10:09:39;;;;;;;17.13;7.95;;;8.70;91.80;;;;;;5035913;28;20025;-80
2021/12/24 10:12:07;;;;;;;16.65;8.35;;;8.70;91.70;;;;;;5052761;28;20017;-79
2021/12/24 10:14:38;;;;;;;16.08;8.55;;;8.70;91.80;;;;;;5053994;28;20183;-79
2021/12/24 10:17:12;;;;;;;15.35;8.13;;;8.70;91.70;;;;;;5036206;28;20017;-80
2021/12/24 10:19:46;;;;;;;17.83;8.25;;;8.70;91.80;;;;;;5049255;28;20052;-78
2021/12/24 10:22:12;;;;;;;15.73;8.27;;;8.80;91.80;;;;;;5049803;28;20045;-78
2021/12/24 10:24:38;;;;;;;14.50;7.85;;;8.70;91.80;;;;;;5033197;28;20021;-79
2021/12/24 10:27:04;;;;;;;17.75;8.15;;;8.70;91.70;;;;;;5034029;28;20421;-78
2021/12/24 10:29:37;;;;;;;18.17;8.38;;;8.70;91.70;;;;;;5050345;28;20508;-80
2021/12/24 10:32:20;;;;;;;14.02;7.70;;;8.70;91.80;;;;;;5051838;28;20075;-78
2021/12/24 10:34:46;;;;;;;17.48;8.02;;;8.70;91.90;;;;;;5052295;28;20028;-80
2021/12/24 10:37:25;;;;;;;17.38;8.07;;;8.70;92.10;;;;;;5037058;28;20049;-80
2021/12/24 10:39:56;;;;;;;24.50;8.45;;;8.80;91.60;;;;;;5054754;28;20051;-83
2021/12/24 10:42:26;;;;;;;15.35;7.60;;;9.00;91.40;;;;;;5051933;28;20029;-79
2021/12/24 10:44:53;;;;;;;14.98;7.68;;;9.00;91.20;;;;;;5057466;28;20020;-80
2021/12/24 10:47:20;;;;;;;17.75;7.35;;;9.00;91.20;;;;;;5057210;28;20092;-79
2021/12/24 10:53:17;;;;;;;14.90;6.93;;;9.00;91.10;;;;;;5055988;28;20490;-81
2021/12/24 10:55:49;;;;;;;14.07;6.60;;;9.00;91.00;;;;;;5056131;28;20071;-79
2021/12/24 10:58:23;;;;;;;17.08;7.25;;;9.00;91.00;;;;;;5059195;28;20056;-79
2021/12/24 11:00:58;;;;;;;13.88;7.13;;;9.00;91.00;;;;;;5056908;28;20033;-80
2021/12/24 11:03:26;;;;;;;17.05;7.40;;;9.00;91.00;;;;;;5055677;28;20493;-80
2021/12/24 11:05:55;;;;;;;15.45;7.25;;;9.00;90.90;;;;;;5056316;28;20051;-81
2021/12/24 11:08:26;;;;;;;16.48;7.65;;;9.10;90.90;;;;;;5056820;28;20043;-79
2021/12/24 11:10:54;;;;;;;13.70;7.50;;;9.10;90.80;;;;;;5057109;28;20089;-80
2021/12/24 11:13:35;;;;;;;13.50;8.15;;;9.10;90.90;;;;;;5057637;28;20045;-81
2021/12/24 11:16:02;;;;;;;12.73;7.30;;;9.10;90.90;;;;;;5058416;28;20040;-80
2021/12/24 11:18:33;;;;;;;11.15;6.82;;;9.10;90.90;;;;;;5057685;28;20029;-78
2021/12/24 11:21:26;;;;;;;13.80;6.70;;;9.10;90.90;;;;;;5059948;28;20023;-80
2021/12/24 11:23:53;;;;;;;14.15;7.60;;;9.10;90.90;;;;;;5052612;28;20020;-78
2021/12/24 11:26:50;;;;;;;13.95;7.30;;;9.10;90.90;;;;;;5056463;28;20064;-82
2021/12/24 11:29:15;;;;;;;13.18;7.20;;;9.10;90.90;;;;;;5064676;28;20021;-82
2021/12/24 11:31:41;;;;;;;11.13;7.25;;;9.10;90.90;;;;;;5066311;28;20021;-80
2021/12/24 11:34:08;;;;;;;12.35;7.55;;;9.10;90.90;;;;;;5065455;28;20026;-80
2021/12/24 11:36:33;;;;;;;10.80;7.15;;;9.10;91.20;;;;;;5063801;28;20036;-80
2021/12/24 11:39:02;;;;;;;13.35;7.07;;;9.10;90.90;;;;;;5063872;28;20382;-82
2021/12/24 11:41:31;;;;;;;13.95;7.45;;;9.10;90.90;;;;;;5064953;28;20115;-80
2021/12/24 11:43:57;;;;;;;11.38;6.78;;;9.00;91.20;;;;;;5063259;28;20055;-81
2021/12/24 11:46:25;;;;;;;11.43;6.75;;;9.10;91.00;;;;;;5060756;28;20021;-80
2021/12/24 11:48:53;;;;;;;12.45;7.28;;;9.10;90.90;;;;;;5060053;28;20020;-79
2021/12/24 11:51:21;;;;;;;14.38;7.78;;;9.10;90.90;;;;;;5060734;28;20017;-79
2021/12/24 11:53:48;;;;;;;14.05;7.30;;;9.10;90.80;;;;;;5059194;28;20366;-79
2021/12/24 11:56:16;;;;;;;15.15;7.75;;;9.10;90.90;;;;;;5059059;28;20706;-79
2021/12/24 11:58:43;;;;;;;12.57;6.93;;;9.10;90.90;;;;;;5058101;28;20025;-79
2021/12/24 12:01:10;;;;;;;10.75;7.18;;;9.10;90.80;;;;;;5059565;28;20470;-79
2021/12/24 12:03:40;;;;;;;12.18;7.45;;;9.10;91.00;;;;;;5053774;28;20037;-79
2021/12/24 12:06:10;;;;;;;12.82;7.18;;;9.10;90.80;;;;;;5056993;28;20024;-78
2021/12/24 12:08:39;;;;;;;12.82;7.38;;;9.10;90.80;;;;;;5056290;28;20536;-79
2021/12/24 12:11:14;;;;;;;13.15;6.95;;;9.10;90.90;;;;;;5054582;28;20024;-77
2021/12/24 12:13:47;;;;;;;10.60;6.40;;;9.10;90.90;;;;;;5054952;28;20079;-77
2021/12/24 12:16:19;;;;;;;11.82;7.10;;;9.10;91.30;;;;;;5058152;28;20548;-78
2021/12/24 12:19:14;;;;;;;15.35;7.00;;;9.10;90.80;;;;;;5058447;28;20516;-79
2021/12/24 12:21:36;;;;;;;17.27;6.75;;;9.10;90.80;;;;;;5057724;28;20041;-79
2021/12/24 12:26:37;;;;;;;12.48;6.95;;;9.10;90.90;;;;;;5057494;28;20025;-78
2021/12/24 12:29:24;;;;;;;10.00;6.20;;;9.10;91.00;;;;;;5054952;28;20461;-78
2021/12/24 12:32:21;;;;;;;13.02;6.47;;;9.10;90.90;;;;;;5056570;28;20082;-79
2021/12/24 12:34:48;;;;;;;11.10;6.35;;;9.10;91.10;;;;;;5051638;28;20109;-77
2021/12/24 12:37:39;;;;;;;10.82;6.20;;;9.10;91.10;;;;;;5053423;28;20018;-77
2021/12/24 12:40:17;;;;;;;10.63;6.50;;;9.10;91.10;;;;;;5055497;28;20023;-81
2021/12/24 12:42:49;;;;;;;9.55;6.05;;;9.10;91.10;;;;;;5053889;28;20075;-78
2021/12/24 12:45:15;;;;;;;;;;;9.10;91.10;;;;;;5057012;28;20029;-79
2021/12/24 12:47:59;;;;;;;13.13;6.57;;;9.10;91.10;;;;;;5057109;28;19913;-79
2021/12/24 12:50:27;;;;;;;10.77;6.15;;;9.10;91.00;;;;;;5056430;28;20028;-76
2021/12/24 12:53:34;;;;;;;11.25;6.10;;;9.10;91.00;;;;;;5056404;28;20040;-77
2021/12/24 12:56:21;;;;;;;11.23;6.05;;;9.10;91.10;;;;;;5054423;28;20032;-77
2021/12/24 12:59:04;;;;;;;11.93;6.60;;;9.10;91.20;;;;;;5055041;28;20029;-78
2021/12/24 13:01:31;;;;;;;11.73;6.25;;;9.10;91.10;;;;;;5056523;28;20021;-77
2021/12/24 13:04:03;;;;;;;11.15;6.13;;;9.10;91.10;;;;;;5054931;28;20110;-78
2021/12/24 13:06:41;;;;;;;11.70;6.10;;;9.10;91.20;;;;;;5055647;28;20490;-77
2021/12/24 13:09:14;;;;;;;13.18;6.40;;;9.10;91.10;;;;;;5056926;28;20489;-80
2021/12/24 13:11:45;;;;;;;10.43;5.97;;;9.10;91.30;;;;;;5059363;28;20021;-80
2021/12/24 13:14:12;;;;;;;11.05;6.32;;;9.10;91.30;;;;;;5058623;28;20021;-80
2021/12/24 13:16:50;;;;;;;12.48;6.07;;;9.10;91.40;;;;;;5058732;28;20067;-80
2021/12/24 13:24:53;;;;;;;12.30;6.03;;;9.10;91.20;;;;;;5060702;28;20516;-81
2021/12/24 13:27:23;;;;;;;10.30;5.78;;;9.10;91.30;;;;;;5058650;28;20032;-80
2021/12/24 13:30:02;;;;;;;9.63;5.82;;;9.10;91.20;;;;;;5058642;28;20036;-81
2021/12/24 13:32:28;;;;;;;10.35;5.47;;;9.10;91.20;;;;;;5060649;28;20021;-79
2021/12/24 13:34:57;;;;;;;9.98;6.20;;;9.10;91.30;;;;;;5058986;28;20108;-80
2021/12/24 13:37:30;;;;;;;10.00;5.40;;;9.10;91.30;;;;;;5059477;28;20021;-81
2021/12/24 13:39:56;;;;;;;9.80;5.70;;;9.10;91.30;;;;;;5061001;28;20028;-79
2021/12/24 13:42:21;;;;;;;8.55;5.40;;;9.10;91.20;;;;;;5058994;28;20025;-79
2021/12/24 13:44:48;;;;;;;9.25;5.32;;;9.10;91.30;;;;;;5058536;28;20025;-79
2021/12/24 13:47:40;;;;;;;9.38;5.40;;;9.10;91.30;;;;;;5057967;28;20017;-80
2021/12/24 13:50:31;;;;;;;9.63;5.50;;;9.10;91.30;;;;;;5058440;28;20491;-80
2021/12/24 13:55:46;;;;;;;8.55;5.10;;;9.10;91.30;;;;;;5058603;28;20028;-80
2021/12/24 13:58:19;;;;;;;8.65;5.25;;;9.10;91.30;;;;;;5055899;28;20025;-80
2021/12/24 14:01:03;;;;;;;8.70;5.25;;;9.10;91.30;;;;;;5055989;28;20025;-78
2021/12/24 14:03:32;;;;;;;7.40;4.60;;;9.10;91.40;;;;;;5055470;28;20497;-79
2021/12/24 14:06:03;;;;;;;8.95;5.25;;;9.10;91.40;;;;;;5056824;28;20037;-80
2021/12/24 14:08:32;;;;;;;7.60;4.80;;;9.10;91.40;;;;;;5055397;28;20029;-80
2021/12/24 14:11:12;;;;;;;8.23;4.78;;;9.10;91.40;;;;;;5055436;28;20025;-80
2021/12/24 14:13:45;;;;;;;9.20;4.70;;;9.10;91.40;;;;;;5054841;28;20032;-79
2021/12/24 14:18:53;;;;;;;7.55;4.25;;;9.10;91.30;;;;;;5056799;28;20033;-80
2021/12/24 14:24:26;;;;;;;8.93;4.25;;;9.00;91.50;;;;;;5056062;28;20028;-78
2021/12/24 14:26:55;;;;;;;6.40;3.35;;;9.00;91.40;;;;;;5051962;28;20037;-79
2021/12/24 14:29:25;;;;;;;6.00;3.55;;;9.00;91.40;;;;;;5056533;28;20047;-80
2021/12/24 14:31:54;;;;;;;6.60;3.70;;;9.00;91.40;;;;;;5054672;28;20037;-77
2021/12/24 14:34:42;;;;;;;5.55;3.17;;;9.00;91.40;;;;;;5055475;28;20040;-83
2021/12/24 14:37:19;;;;;;;5.53;2.67;;;9.00;91.30;;;;;;5061340;28;20103;-80
2021/12/24 14:39:49;;;;;;;5.00;2.65;;;9.00;91.30;;;;;;5065219;28;20033;-80
2021/12/24 14:42:24;;;;;;;5.72;2.80;;;9.00;91.30;;;;;;5064710;28;20494;-81
2021/12/24 14:44:53;;;;;;;5.00;2.38;;;9.00;91.20;;;;;;5066103;28;20064;-81
2021/12/24 14:47:25;;;;;;;4.90;2.25;;;9.00;91.20;;;;;;5065397;28;20029;-80